Weather at Broadwater Airport

Public forecast

Using degrees Fahrenheit for public forecast. Weather courtesy of forecast.io.

Closest aviation weather report (METAR) to Broadwater Airport

Closest report is Poplar Bluff Municipal Airport, 22.4 nm (41.5 km) WNW. Retrieved 2021/01/27 22:14 UTC (29 minutes ago):

KPOF 272214Z AUTO 35007KT 10SM FEW020 SCT027 OVC037 02/M02 A3032

Closest aviation forecast (TAF) to Broadwater Airport

Closest forecast is Cape Girardeau Regional Airport, 41.7 nm (77.2 km) NNE. Retrieved 2021/01/27 18:22 UTC (4 hours ago):

TAF KCGI 271720Z 2718/2818 36009KT 1SM -SN BR OVC016 TEMPO 2718/2720 1/4SM +SN VV005 FM272000 35010KT P6SM OVC018 FM280600 36009KT P6SM SCT020